createdAt,value
2022-11-20T00:00:55.598Z,97985.14
2022-11-20T00:03:22.629Z,97987.69
2022-11-20T00:05:49.052Z,97990.39
2022-11-20T00:08:15.639Z,97992.10
2022-11-20T00:10:42.155Z,97992.44
2022-11-20T00:13:09.021Z,97994.13
2022-11-20T00:15:35.663Z,97989.38
2022-11-20T00:18:02.084Z,97990.55
2022-11-20T00:20:28.783Z,97989.04
2022-11-20T00:22:55.215Z,97991.56
2022-11-20T00:25:21.808Z,97989.02
2022-11-20T00:27:48.304Z,97986.30
2022-11-20T00:30:15.343Z,97988.48
2022-11-20T00:32:41.963Z,97993.05
2022-11-20T00:35:08.438Z,97995.75
2022-11-20T00:37:36.446Z,98000.13
2022-11-20T00:40:03.218Z,97997.73
2022-11-20T00:42:29.654Z,97989.89
2022-11-20T00:44:56.182Z,97987.83
2022-11-20T00:47:22.845Z,97992.21
2022-11-20T00:49:49.277Z,97996.77
2022-11-20T00:52:15.912Z,97997.08
2022-11-20T00:54:42.296Z,97996.72
2022-11-20T00:57:08.800Z,97990.76
2022-11-20T00:59:35.419Z,97988.88
2022-11-20T01:02:01.795Z,97987.32
2022-11-20T01:04:28.208Z,97979.69
2022-11-20T01:06:54.718Z,97979.49
2022-11-20T01:09:21.262Z,97981.52
2022-11-20T01:11:47.943Z,97976.08
2022-11-20T01:14:17.484Z,97975.36
2022-11-20T01:16:52.192Z,97978.73
2022-11-20T01:19:22.037Z,97982.42
2022-11-20T01:21:52.011Z,97988.34
2022-11-20T01:24:20.034Z,97990.17
2022-11-20T01:26:49.322Z,97988.28
2022-11-20T01:29:18.699Z,97986.35
2022-11-20T01:31:46.115Z,97984.77
2022-11-20T01:34:16.456Z,97980.84
2022-11-20T01:36:43.733Z,97986.61
2022-11-20T01:39:25.417Z,97988.45
2022-11-20T01:41:53.969Z,97995.38
2022-11-20T01:44:23.967Z,97994.83
2022-11-20T01:47:00.021Z,97989.54
2022-11-20T01:49:39.747Z,97992.41
2022-11-20T01:52:19.255Z,97985.08
2022-11-20T01:54:57.105Z,97975.54
2022-11-20T01:57:28.469Z,97969.92
2022-11-20T02:00:01.574Z,97964.50
2022-11-20T02:02:28.968Z,97961.81
2022-11-20T02:05:01.828Z,97960.29
2022-11-20T02:07:28.913Z,97952.98
2022-11-20T02:09:58.699Z,97954.81
2022-11-20T02:12:25.739Z,97948.16
2022-11-20T02:14:52.377Z,97948.98
2022-11-20T02:17:18.818Z,97950.98
2022-11-20T02:19:45.360Z,97954.50
2022-11-20T02:22:30.178Z,97946.47
2022-11-20T02:24:59.931Z,97944.20
2022-11-20T02:27:27.631Z,97945.85
2022-11-20T02:30:05.391Z,97942.05
2022-11-20T02:32:34.604Z,97943.54
2022-11-20T02:35:19.189Z,97938.76
2022-11-20T02:37:48.770Z,97938.71
2022-11-20T02:40:15.619Z,97934.76
2022-11-20T02:42:42.227Z,97930.31
2022-11-20T02:45:09.289Z,97931.14
2022-11-20T02:47:35.875Z,97929.45
2022-11-20T02:50:02.370Z,97935.23
2022-11-20T02:52:28.955Z,97938.48
2022-11-20T02:54:55.715Z,97937.45
2022-11-20T02:57:22.334Z,97936.61
2022-11-20T02:59:48.754Z,97936.64
2022-11-20T03:02:15.318Z,97936.66
2022-11-20T03:04:41.856Z,97936.64
2022-11-20T03:07:08.950Z,97932.20
2022-11-20T03:09:35.347Z,97930.13
2022-11-20T03:12:03.540Z,97928.03
2022-11-20T03:14:30.282Z,97916.94
2022-11-20T03:16:57.239Z,97917.27
2022-11-20T03:19:25.349Z,97920.65
2022-11-20T03:21:52.003Z,97920.35
2022-11-20T03:24:18.480Z,97917.81
2022-11-20T03:26:45.020Z,97914.08
2022-11-20T03:29:11.764Z,97912.59
2022-11-20T03:31:41.279Z,97905.96
2022-11-20T03:34:09.757Z,97901.20
2022-11-20T03:36:39.271Z,97903.44
2022-11-20T03:39:05.847Z,97901.08
2022-11-20T03:41:38.432Z,97906.17
2022-11-20T03:44:07.613Z,97903.10
2022-11-20T03:46:34.731Z,97895.45
2022-11-20T03:49:01.277Z,97888.45
2022-11-20T03:51:30.767Z,97891.84
2022-11-20T03:54:00.086Z,97898.97
2022-11-20T03:56:29.728Z,97897.80
2022-11-20T03:58:56.715Z,97895.95
2022-11-20T04:01:29.498Z,97890.17
2022-11-20T04:03:57.727Z,97888.52
2022-11-20T04:06:30.530Z,97886.50
2022-11-20T04:08:58.697Z,97887.23
2022-11-20T04:11:28.165Z,97885.20
2022-11-20T04:14:04.474Z,97885.36
2022-11-20T04:16:34.299Z,97880.91
2022-11-20T04:19:03.282Z,97880.70
2022-11-20T04:21:30.074Z,97881.68
2022-11-20T04:23:58.101Z,97878.60
2022-11-20T04:26:26.914Z,97880.96
2022-11-20T04:28:55.069Z,97872.57
2022-11-20T04:31:24.143Z,97873.37
2022-11-20T04:33:51.015Z,97866.86
2022-11-20T04:36:20.318Z,97867.70
2022-11-20T04:38:51.373Z,97862.13
2022-11-20T04:41:24.124Z,97871.67
2022-11-20T04:43:52.356Z,97876.55
2022-11-20T04:46:20.600Z,97876.55
2022-11-20T04:48:48.406Z,97883.16
2022-11-20T04:51:15.319Z,97879.23
2022-11-20T04:53:43.093Z,97881.77
2022-11-20T04:56:13.208Z,97879.54
2022-11-20T04:58:40.669Z,97875.80
2022-11-20T05:01:08.572Z,97876.29
2022-11-20T05:03:39.712Z,97875.71
2022-11-20T05:06:10.769Z,97872.12
2022-11-20T05:08:37.643Z,97877.41
2022-11-20T05:11:13.033Z,97884.15
2022-11-20T05:13:40.079Z,97883.75
2022-11-20T05:16:13.270Z,97885.27
2022-11-20T05:18:41.608Z,97887.44
2022-11-20T05:21:09.954Z,97887.43
2022-11-20T05:23:36.476Z,97879.73
2022-11-20T05:26:04.291Z,97872.91
2022-11-20T05:28:31.807Z,97870.38
2022-11-20T05:31:06.774Z,97864.46
2022-11-20T05:33:34.622Z,97863.77
2022-11-20T05:36:01.520Z,97864.75
2022-11-20T05:38:29.646Z,97863.38
2022-11-20T05:40:56.288Z,97869.29
2022-11-20T05:43:22.828Z,97868.90
2022-11-20T05:45:55.530Z,97867.56
2022-11-20T05:48:22.027Z,97873.49
2022-11-20T05:50:49.610Z,97873.83
2022-11-20T05:53:17.691Z,97876.20
2022-11-20T05:55:44.231Z,97873.26
2022-11-20T05:58:10.654Z,97860.48
2022-11-20T06:00:37.523Z,97851.23
2022-11-20T06:03:04.104Z,97847.66
2022-11-20T06:05:30.589Z,97848.36
2022-11-20T06:07:58.670Z,97850.05
2022-11-20T06:10:25.097Z,97850.89
2022-11-20T06:12:51.488Z,97849.83
2022-11-20T06:15:19.625Z,97842.70
2022-11-20T06:17:46.048Z,97839.59
2022-11-20T06:20:12.450Z,97841.80
2022-11-20T06:22:39.020Z,97848.40
2022-11-20T06:25:05.619Z,97855.87
2022-11-20T06:27:32.057Z,97845.48
2022-11-20T06:30:00.172Z,97842.08
2022-11-20T06:32:26.570Z,97840.20
2022-11-20T06:34:53.050Z,97842.74
2022-11-20T06:37:19.491Z,97842.21
2022-11-20T06:39:45.940Z,97842.90
2022-11-20T06:42:12.327Z,97837.14
2022-11-20T06:44:40.306Z,97834.59
2022-11-20T06:47:06.774Z,97830.66
2022-11-20T06:49:33.213Z,97834.92
2022-11-20T06:51:59.754Z,97837.61
2022-11-20T06:54:26.292Z,97835.39
2022-11-20T06:56:52.730Z,97832.97
2022-11-20T06:59:19.314Z,97830.89
2022-11-20T07:01:46.019Z,97831.77
2022-11-20T07:04:12.454Z,97829.57
2022-11-20T07:06:38.944Z,97829.91
2022-11-20T07:09:09.860Z,97826.69
2022-11-20T07:11:38.012Z,97831.08
2022-11-20T07:14:04.548Z,97825.22
2022-11-20T07:16:30.985Z,97830.09
2022-11-20T07:18:57.521Z,97830.30
2022-11-20T07:21:23.977Z,97826.97
2022-11-20T07:23:50.414Z,97837.41
2022-11-20T07:26:16.946Z,97844.29
2022-11-20T07:28:45.557Z,97845.52
2022-11-20T07:31:17.408Z,97848.12
2022-11-20T07:33:45.473Z,97849.53
2022-11-20T07:36:11.911Z,97850.58
2022-11-20T07:38:39.146Z,97849.73
2022-11-20T07:41:05.812Z,97846.93
2022-11-20T07:43:34.829Z,97847.35
2022-11-20T07:46:05.146Z,97851.61
2022-11-20T07:48:31.679Z,97846.93
2022-11-20T07:50:58.221Z,97842.73
2022-11-20T07:53:25.393Z,97841.75
2022-11-20T07:55:53.606Z,97846.52
2022-11-20T07:58:21.214Z,97846.05
2022-11-20T08:00:47.690Z,97843.63
2022-11-20T08:03:14.344Z,97845.54
2022-11-20T08:05:40.759Z,97845.45
2022-11-20T08:08:07.293Z,97847.20
2022-11-20T08:10:33.813Z,97847.70
2022-11-20T08:13:00.478Z,97852.48
2022-11-20T08:15:27.015Z,97849.77
2022-11-20T08:18:28.876Z,97845.08
2022-11-20T08:20:46.250Z,97840.96
2022-11-20T08:23:12.743Z,97840.95
2022-11-20T08:25:39.474Z,97844.55
2022-11-20T08:28:18.731Z,97847.69
2022-11-20T08:30:47.415Z,97848.35
2022-11-20T08:33:13.858Z,97845.02
2022-11-20T08:35:40.400Z,97839.27
2022-11-20T08:38:06.939Z,97834.40
2022-11-20T08:40:34.315Z,97830.46
2022-11-20T08:43:00.877Z,97832.64
2022-11-20T08:45:32.394Z,97833.19
2022-11-20T08:48:02.255Z,97834.80
2022-11-20T08:50:30.503Z,97829.73
2022-11-20T08:53:02.683Z,97831.56
2022-11-20T08:55:29.218Z,97826.05
2022-11-20T08:57:55.627Z,97828.73
2022-11-20T09:00:22.260Z,97826.27
2022-11-20T09:02:48.742Z,97816.69
2022-11-20T09:05:15.379Z,97815.95
2022-11-20T09:07:41.940Z,97813.90
2022-11-20T09:10:25.111Z,97813.57
2022-11-20T09:12:52.867Z,97800.52
2022-11-20T09:15:20.387Z,97789.84
2022-11-20T09:17:57.844Z,97782.52
2022-11-20T09:20:24.747Z,97778.06
2022-11-20T09:22:51.162Z,97778.56
2022-11-20T09:25:18.132Z,97775.84
2022-11-20T09:27:45.171Z,97769.23
2022-11-20T09:30:13.035Z,97770.29
2022-11-20T09:32:40.191Z,97772.12
2022-11-20T09:35:07.645Z,97776.48
2022-11-20T09:37:34.021Z,97778.28
2022-11-20T09:40:00.943Z,97787.23
2022-11-20T09:42:47.547Z,97786.50
2022-11-20T09:45:38.063Z,97793.34
2022-11-20T09:48:42.273Z,97795.09
2022-11-20T09:51:16.593Z,97792.77
2022-11-20T09:53:52.041Z,97794.39
2022-11-20T09:56:22.893Z,97800.05
2022-11-20T09:58:56.164Z,97803.67
2022-11-20T10:01:29.310Z,97801.20
2022-11-20T10:04:03.952Z,97800.04
2022-11-20T10:06:31.883Z,97795.02
2022-11-20T10:09:05.997Z,97797.27
2022-11-20T10:11:45.437Z,97792.23
2022-11-20T10:14:11.875Z,97792.10
2022-11-20T10:16:57.473Z,97784.10
2022-11-20T10:19:45.843Z,97775.00
2022-11-20T10:22:36.184Z,97773.52
2022-11-20T10:25:10.688Z,97769.76
2022-11-20T10:27:59.699Z,97779.64
2022-11-20T10:30:26.570Z,97783.65
2022-11-20T10:32:57.292Z,97789.08
2022-11-20T10:35:58.206Z,97790.94
2022-11-20T10:38:31.130Z,97789.84
2022-11-20T10:41:02.024Z,97789.56
2022-11-20T10:43:35.464Z,97774.48
2022-11-20T10:46:07.795Z,97770.33
2022-11-20T10:48:34.431Z,97771.95
2022-11-20T10:51:11.380Z,97776.05
2022-11-20T10:54:05.040Z,97777.06
2022-11-20T10:56:49.928Z,97777.77
2022-11-20T10:59:35.208Z,97771.71
2022-11-20T11:02:03.335Z,97765.66
2022-11-20T11:04:38.019Z,97763.74
2022-11-20T11:07:20.280Z,97751.48
2022-11-20T11:09:53.831Z,97744.20
2022-11-20T11:12:24.551Z,97741.41
2022-11-20T11:14:55.816Z,97737.13
2022-11-20T11:17:34.443Z,97737.39
2022-11-20T11:20:03.857Z,97735.91
2022-11-20T11:22:33.431Z,97736.18
2022-11-20T11:25:02.014Z,97745.73
2022-11-20T11:27:28.491Z,97743.95
2022-11-20T11:30:16.369Z,97739.27
2022-11-20T11:32:43.239Z,97724.87
2022-11-20T11:35:29.451Z,97717.03
2022-11-20T11:38:05.227Z,97713.73
2022-11-20T11:40:37.086Z,97708.38
2022-11-20T11:43:08.078Z,97708.88
2022-11-20T11:45:34.699Z,97712.90
2022-11-20T11:48:04.433Z,97711.88
2022-11-20T11:50:31.128Z,97710.73
2022-11-20T11:53:18.778Z,97706.67
2022-11-20T11:55:57.230Z,97699.09
2022-11-20T11:58:49.668Z,97697.45
2022-11-20T12:01:31.198Z,97690.81
2022-11-20T12:04:06.859Z,97685.67
2022-11-20T12:06:35.565Z,97682.42
2022-11-20T12:09:12.806Z,97689.38
2022-11-20T12:11:59.879Z,97702.82
2022-11-20T12:14:37.747Z,97695.05
2022-11-20T12:17:05.097Z,97704.05
2022-11-20T12:19:34.574Z,97708.55
2022-11-20T12:22:33.466Z,97705.98
2022-11-20T12:25:18.843Z,97704.42
2022-11-20T12:27:56.236Z,97705.40
2022-11-20T12:30:23.279Z,97704.40
2022-11-20T12:33:13.892Z,97702.37
2022-11-20T12:35:59.178Z,97702.48
2022-11-20T12:38:30.268Z,97704.16
2022-11-20T12:41:05.774Z,97698.78
2022-11-20T12:43:43.379Z,97692.65
2022-11-20T12:46:15.742Z,97678.54
2022-11-20T12:49:23.647Z,97673.36
2022-11-20T12:52:03.244Z,97668.73
2022-11-20T12:54:46.388Z,97670.55
2022-11-20T12:57:31.115Z,97667.42
2022-11-20T13:00:19.262Z,97673.89
2022-11-20T13:03:10.101Z,97672.86
2022-11-20T13:05:59.459Z,97671.27
2022-11-20T13:08:30.493Z,97669.39
2022-11-20T13:11:09.637Z,97667.21
2022-11-20T13:13:54.816Z,97674.11
2022-11-20T13:16:41.945Z,97675.30
2022-11-20T13:19:17.711Z,97673.73
2022-11-20T13:21:46.919Z,97673.90
2022-11-20T13:24:24.198Z,97674.73
2022-11-20T13:27:21.917Z,97671.26
2022-11-20T13:30:02.564Z,97671.71
2022-11-20T13:32:29.394Z,97671.09
2022-11-20T13:34:58.917Z,97675.23
2022-11-20T13:37:29.631Z,97667.76
2022-11-20T13:40:08.876Z,97666.26
2022-11-20T13:42:46.681Z,97660.07
2022-11-20T13:45:25.306Z,97658.80
2022-11-20T13:47:53.921Z,97654.19
2022-11-20T13:50:32.413Z,97656.90
2022-11-20T13:53:21.587Z,97653.66
2022-11-20T13:56:05.843Z,97651.56
2022-11-20T13:58:53.582Z,97654.67
2022-11-20T14:01:27.853Z,97646.10
2022-11-20T14:04:10.123Z,97650.30
2022-11-20T14:06:45.364Z,97657.13
2022-11-20T14:09:25.054Z,97659.18
2022-11-20T14:11:51.548Z,97659.13
2022-11-20T14:14:21.875Z,97661.85
2022-11-20T14:16:50.199Z,97665.77
2022-11-20T14:19:22.535Z,97656.63
2022-11-20T14:21:54.409Z,97649.30
2022-11-20T14:24:24.102Z,97644.56
2022-11-20T14:26:52.383Z,97647.55
2022-11-20T14:29:22.404Z,97649.10
2022-11-20T14:31:54.372Z,97637.14
2022-11-20T14:34:26.965Z,97634.23
2022-11-20T14:37:00.345Z,97635.52
2022-11-20T14:39:33.990Z,97634.95
2022-11-20T14:42:00.702Z,97644.52
2022-11-20T14:44:34.041Z,97661.12
2022-11-20T14:47:02.936Z,97668.87
2022-11-20T14:49:32.609Z,97665.97
2022-11-20T14:52:01.933Z,97666.89
2022-11-20T14:54:28.570Z,97665.54
2022-11-20T14:57:00.431Z,97663.13
2022-11-20T14:59:32.691Z,97660.78
2022-11-20T15:02:05.171Z,97664.16
2022-11-20T15:04:31.640Z,97664.45
2022-11-20T15:07:00.070Z,97664.05
2022-11-20T15:09:26.560Z,97662.86
2022-11-20T15:12:04.114Z,97660.99
2022-11-20T15:14:31.986Z,97656.63
2022-11-20T15:16:58.374Z,97653.80
2022-11-20T15:19:26.701Z,97654.72
2022-11-20T15:21:53.905Z,97651.62
2022-11-20T15:24:21.658Z,97648.59
2022-11-20T15:26:48.478Z,97653.45
2022-11-20T15:29:17.639Z,97660.70
2022-11-20T15:31:44.051Z,97664.08
2022-11-20T15:34:13.066Z,97660.36
2022-11-20T15:36:40.561Z,97667.67
2022-11-20T15:39:07.464Z,97659.77
2022-11-20T15:41:35.797Z,97651.48
2022-11-20T15:44:03.057Z,97640.99
2022-11-20T15:46:32.776Z,97636.79
2022-11-20T15:49:01.180Z,97633.83
2022-11-20T15:51:31.432Z,97634.56
2022-11-20T15:53:58.664Z,97640.31
2022-11-20T15:56:25.862Z,97643.33
2022-11-20T15:58:52.406Z,97643.45
2022-11-20T16:01:21.961Z,97648.81
2022-11-20T16:03:48.920Z,97652.83
2022-11-20T16:06:15.529Z,97646.64
2022-11-20T16:08:41.997Z,97642.96
2022-11-20T16:11:13.689Z,97643.05
2022-11-20T16:13:40.545Z,97643.73
2022-11-20T16:16:12.874Z,97642.03
2022-11-20T16:18:39.464Z,97639.46
2022-11-20T16:21:12.587Z,97637.21
2022-11-20T16:23:39.023Z,97633.95
2022-11-20T16:26:13.775Z,97623.14
2022-11-20T16:28:40.630Z,97626.24
2022-11-20T16:31:15.761Z,97614.73
2022-11-20T16:33:42.708Z,97607.67
2022-11-20T16:36:15.243Z,97617.21
2022-11-20T16:38:42.734Z,97612.48
2022-11-20T16:41:10.190Z,97603.77
2022-11-20T16:43:36.750Z,97613.92
2022-11-20T16:46:05.049Z,97619.80
2022-11-20T16:48:31.550Z,97611.91
2022-11-20T16:50:58.102Z,97617.30
2022-11-20T16:53:24.745Z,97635.42
2022-11-20T16:55:51.133Z,97633.05
2022-11-20T16:58:17.659Z,97631.71
2022-11-20T17:00:50.113Z,97635.16
2022-11-20T17:03:17.868Z,97649.02
2022-11-20T17:05:44.413Z,97654.23
2022-11-20T17:08:11.050Z,97655.04
2022-11-20T17:10:37.529Z,97654.13
2022-11-20T17:13:04.031Z,97653.23
2022-11-20T17:15:31.472Z,97657.40
2022-11-20T17:17:58.029Z,97650.52
2022-11-20T17:20:24.427Z,97648.66
2022-11-20T17:22:50.874Z,97647.40
2022-11-20T17:25:17.359Z,97652.06
2022-11-20T17:27:43.779Z,97654.19
2022-11-20T17:30:10.412Z,97649.67
2022-11-20T17:32:36.881Z,97641.89
2022-11-20T17:35:03.397Z,97640.30
2022-11-20T17:37:29.797Z,97639.14
2022-11-20T17:39:56.219Z,97638.31
2022-11-20T17:42:22.603Z,97641.27
2022-11-20T17:44:48.990Z,97638.26
2022-11-20T17:47:15.506Z,97640.98
2022-11-20T17:49:42.317Z,97637.87
2022-11-20T17:52:08.820Z,97637.98
2022-11-20T17:54:35.298Z,97642.64
2022-11-20T17:57:01.845Z,97644.39
2022-11-20T17:59:28.480Z,97636.93
2022-11-20T18:01:56.704Z,97629.98
2022-11-20T18:04:25.501Z,97628.35
2022-11-20T18:06:52.395Z,97632.83
2022-11-20T18:09:18.931Z,97630.87
2022-11-20T18:11:45.573Z,97619.73
2022-11-20T18:14:15.697Z,97615.78
2022-11-20T18:16:44.730Z,97605.71
2022-11-20T18:19:12.955Z,97602.62
2022-11-20T18:21:39.389Z,97593.05
2022-11-20T18:24:06.561Z,97592.42
2022-11-20T18:26:33.100Z,97595.41
2022-11-20T18:29:04.567Z,97592.67
2022-11-20T18:31:33.855Z,97588.60
2022-11-20T18:34:00.261Z,97599.84
2022-11-20T18:36:29.401Z,97603.87
2022-11-20T18:38:58.351Z,97604.55
2022-11-20T18:41:29.501Z,97607.63
2022-11-20T18:43:56.332Z,97604.22
2022-11-20T18:46:22.819Z,97600.30
2022-11-20T18:48:49.215Z,97605.33
2022-11-20T18:51:15.807Z,97608.01
2022-11-20T18:53:47.162Z,97617.48
2022-11-20T18:56:14.171Z,97615.55
2022-11-20T18:58:41.174Z,97612.11
2022-11-20T19:01:08.622Z,97615.77
2022-11-20T19:03:35.389Z,97612.06
2022-11-20T19:06:02.008Z,97610.93
2022-11-20T19:08:28.849Z,97608.59
2022-11-20T19:10:55.796Z,97604.22
2022-11-20T19:13:22.336Z,97599.83
2022-11-20T19:15:48.813Z,97594.67
2022-11-20T19:18:15.284Z,97599.13
2022-11-20T19:20:42.060Z,97602.44
2022-11-20T19:23:08.593Z,97603.21
2022-11-20T19:25:38.163Z,97599.72
2022-11-20T19:28:05.465Z,97602.63
2022-11-20T19:30:33.233Z,97610.56
2022-11-20T19:32:59.769Z,97612.11
2022-11-20T19:35:26.309Z,97616.55
2022-11-20T19:37:54.908Z,97620.46
2022-11-20T19:40:21.332Z,97618.44
2022-11-20T19:42:47.773Z,97616.13
2022-11-20T19:45:14.251Z,97616.21
2022-11-20T19:50:27.265Z,97621.76
2022-11-20T19:52:58.486Z,97616.45
2022-11-20T19:55:25.312Z,97612.21
2022-11-20T19:57:52.106Z,97608.36
2022-11-20T20:00:26.679Z,97609.90
2022-11-20T20:02:57.577Z,97608.40
2022-11-20T20:05:24.421Z,97609.90
2022-11-20T20:07:50.961Z,97607.85
2022-11-20T20:10:17.403Z,97607.50
2022-11-20T20:12:44.134Z,97610.72
2022-11-20T20:15:10.693Z,97612.71
2022-11-20T20:17:37.435Z,97612.14
2022-11-20T20:20:04.495Z,97610.25
2022-11-20T20:22:31.023Z,97608.86
2022-11-20T20:24:57.443Z,97604.05
2022-11-20T20:27:23.902Z,97602.16
2022-11-20T20:29:50.510Z,97600.61
2022-11-20T20:32:17.085Z,97602.02
2022-11-20T20:34:43.621Z,97599.87
2022-11-20T20:37:10.158Z,97599.40
2022-11-20T20:39:36.561Z,97613.32
2022-11-20T20:42:03.135Z,97612.09
2022-11-20T20:44:29.611Z,97617.29
2022-11-20T20:46:56.051Z,97621.64
2022-11-20T20:49:22.612Z,97621.73
2022-11-20T20:51:49.292Z,97622.19
2022-11-20T20:54:15.834Z,97613.54
2022-11-20T20:56:42.376Z,97605.89
2022-11-20T20:59:08.912Z,97602.55
2022-11-20T21:01:35.522Z,97595.38
2022-11-20T21:04:02.090Z,97597.77
2022-11-20T21:06:28.509Z,97594.74
2022-11-20T21:08:54.939Z,97595.80
2022-11-20T21:11:21.396Z,97601.94
2022-11-20T21:13:48.670Z,97605.20
2022-11-20T21:16:17.993Z,97605.39
2022-11-20T21:18:44.479Z,97604.56
2022-11-20T21:21:13.764Z,97608.84
2022-11-20T21:23:40.771Z,97602.77
2022-11-20T21:26:08.930Z,97605.53
2022-11-20T21:28:37.026Z,97602.15
2022-11-20T21:31:25.000Z,97594.48
2022-11-20T21:33:52.922Z,97596.01
2022-11-20T21:36:25.190Z,97598.17
2022-11-20T21:38:53.387Z,97590.35
2022-11-20T21:41:19.932Z,97585.87
2022-11-20T21:44:09.196Z,97582.98
2022-11-20T21:46:38.102Z,97580.39
2022-11-20T21:49:04.587Z,97586.14
2022-11-20T21:51:31.268Z,97584.79
2022-11-20T21:53:57.824Z,97586.30
2022-11-20T21:56:25.803Z,97587.84
2022-11-20T21:58:54.275Z,97591.79
2022-11-20T22:01:23.462Z,97596.59
2022-11-20T22:03:52.197Z,97593.57
2022-11-20T22:06:19.832Z,97593.77
2022-11-20T22:08:47.071Z,97594.65
2022-11-20T22:11:16.408Z,97597.89
2022-11-20T22:13:43.463Z,97596.14
2022-11-20T22:16:10.958Z,97604.50
2022-11-20T22:18:46.170Z,97613.71
2022-11-20T22:21:14.799Z,97610.20
2022-11-20T22:23:41.585Z,97610.42
2022-11-20T22:26:13.267Z,97601.98
2022-11-20T22:28:40.725Z,97597.11
2022-11-20T22:31:09.817Z,97600.39
2022-11-20T22:33:38.004Z,97598.05
2022-11-20T22:36:15.697Z,97591.30
2022-11-20T22:38:42.567Z,97584.27
2022-11-20T22:41:12.481Z,97577.49
2022-11-20T22:43:40.455Z,97567.50
2022-11-20T22:46:12.250Z,97571.73
2022-11-20T22:48:40.899Z,97583.48
2022-11-20T22:51:10.427Z,97581.98
2022-11-20T22:53:37.187Z,97580.48
2022-11-20T22:56:05.038Z,97581.13
2022-11-20T22:58:31.792Z,97581.98
2022-11-20T23:01:12.520Z,97586.23
2022-11-20T23:03:40.977Z,97593.40
2022-11-20T23:06:08.191Z,97595.98
2022-11-20T23:08:34.747Z,97597.84
2022-11-20T23:11:03.594Z,97598.52
2022-11-20T23:13:30.050Z,97592.77
2022-11-20T23:16:05.630Z,97592.80
2022-11-20T23:18:34.426Z,97592.15
2022-11-20T23:21:19.829Z,97594.20
2022-11-20T23:23:51.135Z,97590.84
2022-11-20T23:26:19.131Z,97588.16
2022-11-20T23:28:45.806Z,97582.63
2022-11-20T23:31:14.036Z,97579.10
2022-11-20T23:33:43.175Z,97579.64
2022-11-20T23:36:10.412Z,97575.42
2022-11-20T23:38:37.681Z,97573.08
2022-11-20T23:41:05.024Z,97572.10
2022-11-20T23:43:32.386Z,97569.95
2022-11-20T23:46:00.658Z,97567.61
2022-11-20T23:48:32.339Z,97563.58
2022-11-20T23:50:59.519Z,97561.77
2022-11-20T23:53:26.950Z,97561.00
2022-11-20T23:55:55.943Z,97561.74
2022-11-20T23:58:24.248Z,97563.79
